sensor_id;sensor_type;location;lat;lon;timestamp;pressure;altitude;pressure_sealevel;temperature;humidity
49825;BME280;35714;55.708;37.478;2023-03-19T00:00:04;100762.16;;;-0.27;35.81
49825;BME280;35714;55.708;37.478;2023-03-19T00:02:33;100754.03;;;-0.26;35.55
49825;BME280;35714;55.708;37.478;2023-03-19T00:04:58;100749.81;;;-0.28;35.67
49825;BME280;35714;55.708;37.478;2023-03-19T00:07:24;100741.34;;;-0.33;35.94
49825;BME280;35714;55.708;37.478;2023-03-19T00:09:50;100736.03;;;-0.33;35.88
49825;BME280;35714;55.708;37.478;2023-03-19T00:12:16;100731.22;;;-0.40;36.01
49825;BME280;35714;55.708;37.478;2023-03-19T00:14:42;100738.50;;;-0.42;36.04
49825;BME280;35714;55.708;37.478;2023-03-19T00:17:08;100735.16;;;-0.44;36.21
49825;BME280;35714;55.708;37.478;2023-03-19T00:19:33;100740.84;;;-0.48;36.73
49825;BME280;35714;55.708;37.478;2023-03-19T00:21:59;100727.81;;;-0.51;36.47
49825;BME280;35714;55.708;37.478;2023-03-19T00:24:25;100725.84;;;-0.49;36.73
49825;BME280;35714;55.708;37.478;2023-03-19T00:26:50;100725.84;;;-0.49;36.95
49825;BME280;35714;55.708;37.478;2023-03-19T00:29:16;100716.53;;;-0.55;37.12
49825;BME280;35714;55.708;37.478;2023-03-19T00:31:42;100719.41;;;-0.47;36.97
49825;BME280;35714;55.708;37.478;2023-03-19T00:34:08;100722.47;;;-0.51;37.15
49825;BME280;35714;55.708;37.478;2023-03-19T00:36:35;100711.75;;;-0.61;37.30
49825;BME280;35714;55.708;37.478;2023-03-19T00:39:02;100709.94;;;-0.61;37.41
49825;BME280;35714;55.708;37.478;2023-03-19T00:41:28;100713.88;;;-0.55;37.54
49825;BME280;35714;55.708;37.478;2023-03-19T00:43:54;100711.63;;;-0.60;37.48
49825;BME280;35714;55.708;37.478;2023-03-19T00:46:21;100716.03;;;-0.70;38.11
49825;BME280;35714;55.708;37.478;2023-03-19T00:48:48;100710.44;;;-0.67;38.23
49825;BME280;35714;55.708;37.478;2023-03-19T00:51:15;100709.13;;;-0.73;38.01
49825;BME280;35714;55.708;37.478;2023-03-19T00:53:42;100715.25;;;-0.82;38.19
49825;BME280;35714;55.708;37.478;2023-03-19T00:56:10;100710.19;;;-0.85;38.34
49825;BME280;35714;55.708;37.478;2023-03-19T00:58:37;100709.22;;;-0.84;38.41
49825;BME280;35714;55.708;37.478;2023-03-19T01:01:04;100711.47;;;-0.79;38.87
49825;BME280;35714;55.708;37.478;2023-03-19T01:03:30;100717.06;;;-0.82;38.42
49825;BME280;35714;55.708;37.478;2023-03-19T01:05:57;100700.66;;;-0.87;38.69
49825;BME280;35714;55.708;37.478;2023-03-19T01:08:23;100714.91;;;-0.88;38.60
49825;BME280;35714;55.708;37.478;2023-03-19T01:10:51;100709.72;;;-0.90;39.06
49825;BME280;35714;55.708;37.478;2023-03-19T01:13:16;100712.88;;;-0.85;38.93
49825;BME280;35714;55.708;37.478;2023-03-19T01:15:43;100706.22;;;-0.91;39.00
49825;BME280;35714;55.708;37.478;2023-03-19T01:18:10;100705.66;;;-0.94;38.92
49825;BME280;35714;55.708;37.478;2023-03-19T01:20:39;100708.50;;;-0.86;39.20
49825;BME280;35714;55.708;37.478;2023-03-19T01:23:06;100697.84;;;-0.86;39.26
49825;BME280;35714;55.708;37.478;2023-03-19T01:25:33;100702.00;;;-0.93;39.53
49825;BME280;35714;55.708;37.478;2023-03-19T01:28:04;100702.00;;;-0.93;39.64
49825;BME280;35714;55.708;37.478;2023-03-19T01:30:30;100701.66;;;-1.00;39.58
49825;BME280;35714;55.708;37.478;2023-03-19T01:33:05;100701.34;;;-1.06;39.84
49825;BME280;35714;55.708;37.478;2023-03-19T01:35:40;100701.84;;;-1.13;39.61
49825;BME280;35714;55.708;37.478;2023-03-19T01:38:06;100700.41;;;-1.17;39.72
49825;BME280;35714;55.708;37.478;2023-03-19T01:40:32;100696.22;;;-1.19;39.75
49825;BME280;35714;55.708;37.478;2023-03-19T01:43:14;100696.78;;;-1.16;39.86
49825;BME280;35714;55.708;37.478;2023-03-19T01:45:51;100687.47;;;-1.21;39.87
49825;BME280;35714;55.708;37.478;2023-03-19T01:48:41;100700.41;;;-1.17;40.09
49825;BME280;35714;55.708;37.478;2023-03-19T01:51:15;100684.69;;;-1.20;39.78
49825;BME280;35714;55.708;37.478;2023-03-19T01:54:03;100688.34;;;-1.21;39.89
49825;BME280;35714;55.708;37.478;2023-03-19T01:57:02;100680.81;;;-1.16;40.64
49825;BME280;35714;55.708;37.478;2023-03-19T01:59:52;100682.78;;;-1.18;40.26
49825;BME280;35714;55.708;37.478;2023-03-19T02:02:39;100683.88;;;-1.20;40.24
49825;BME280;35714;55.708;37.478;2023-03-19T02:05:25;100668.97;;;-1.23;40.12
49825;BME280;35714;55.708;37.478;2023-03-19T02:08:04;100671.50;;;-1.21;40.51
49825;BME280;35714;55.708;37.478;2023-03-19T02:10:32;100673.34;;;-1.22;40.79
49825;BME280;35714;55.708;37.478;2023-03-19T02:12:59;100668.97;;;-1.23;40.34
49825;BME280;35714;55.708;37.478;2023-03-19T02:15:25;100662.25;;;-1.27;40.25
49825;BME280;35714;55.708;37.478;2023-03-19T02:17:51;100659.59;;;-1.27;40.17
49825;BME280;35714;55.708;37.478;2023-03-19T02:23:50;100656.66;;;-1.24;40.46
49825;BME280;35714;55.708;37.478;2023-03-19T02:26:25;100647.50;;;-1.31;40.79
49825;BME280;35714;55.708;37.478;2023-03-19T02:28:58;100654.03;;;-1.35;40.40
49825;BME280;35714;55.708;37.478;2023-03-19T02:31:29;100617.16;;;-1.61;40.57
49825;BME280;35714;55.708;37.478;2023-03-19T02:34:01;100648.72;;;-1.35;40.96
49825;BME280;35714;55.708;37.478;2023-03-19T02:36:32;100660.22;;;-1.35;41.01
49825;BME280;35714;55.708;37.478;2023-03-19T02:39:03;100654.91;;;-1.35;41.23
49825;BME280;35714;55.708;37.478;2023-03-19T02:41:30;100661.31;;;-1.37;40.88
49825;BME280;35714;55.708;37.478;2023-03-19T02:43:58;100654.56;;;-1.41;41.00
49825;BME280;35714;55.708;37.478;2023-03-19T02:46:26;100656.50;;;-1.43;40.94
49825;BME280;35714;55.708;37.478;2023-03-19T02:48:52;100642.47;;;-1.46;40.84
49825;BME280;35714;55.708;37.478;2023-03-19T02:51:18;100644.69;;;-1.51;40.93
49825;BME280;35714;55.708;37.478;2023-03-19T02:53:44;100651.69;;;-1.50;40.97
49825;BME280;35714;55.708;37.478;2023-03-19T02:56:10;100653.38;;;-1.49;41.38
49825;BME280;35714;55.708;37.478;2023-03-19T02:58:36;100643.25;;;-1.55;41.12
49825;BME280;35714;55.708;37.478;2023-03-19T03:01:02;100647.72;;;-1.55;41.23
49825;BME280;35714;55.708;37.478;2023-03-19T03:03:28;100640.94;;;-1.59;41.27
49825;BME280;35714;55.708;37.478;2023-03-19T03:05:54;100646.03;;;-1.56;41.35
49825;BME280;35714;55.708;37.478;2023-03-19T03:08:20;100636.47;;;-1.59;41.53
49825;BME280;35714;55.708;37.478;2023-03-19T03:10:45;100639.75;;;-1.55;41.55
49825;BME280;35714;55.708;37.478;2023-03-19T03:13:11;100627.28;;;-1.55;41.91
49825;BME280;35714;55.708;37.478;2023-03-19T03:15:37;100628.97;;;-1.54;41.74
49825;BME280;35714;55.708;37.478;2023-03-19T03:18:03;100623.66;;;-1.54;41.65
49825;BME280;35714;55.708;37.478;2023-03-19T03:20:29;100632.34;;;-1.52;41.64
49825;BME280;35714;55.708;37.478;2023-03-19T03:22:54;100630.66;;;-1.53;41.79
49825;BME280;35714;55.708;37.478;2023-03-19T03:25:20;100628.00;;;-1.53;41.80
49825;BME280;35714;55.708;37.478;2023-03-19T03:27:47;100633.44;;;-1.54;41.54
49825;BME280;35714;55.708;37.478;2023-03-19T03:30:13;100620.38;;;-1.57;41.89
49825;BME280;35714;55.708;37.478;2023-03-19T03:32:40;100608.00;;;-1.68;41.49
49825;BME280;35714;55.708;37.478;2023-03-19T03:35:07;100626.56;;;-1.57;41.74
49825;BME280;35714;55.708;37.478;2023-03-19T03:37:34;100632.84;;;-1.58;41.60
49825;BME280;35714;55.708;37.478;2023-03-19T03:40:00;100624.16;;;-1.60;41.74
49825;BME280;35714;55.708;37.478;2023-03-19T03:42:35;100632.84;;;-1.58;41.89
49825;BME280;35714;55.708;37.478;2023-03-19T03:45:03;100625.84;;;-1.59;41.97
49825;BME280;35714;55.708;37.478;2023-03-19T03:47:29;100625.84;;;-1.59;41.94
49825;BME280;35714;55.708;37.478;2023-03-19T03:49:55;100624.88;;;-1.58;42.18
49825;BME280;35714;55.708;37.478;2023-03-19T03:52:21;100625.59;;;-1.56;41.83
49825;BME280;35714;55.708;37.478;2023-03-19T03:54:48;100616.91;;;-1.58;41.97
49825;BME280;35714;55.708;37.478;2023-03-19T03:57:14;100626.06;;;-1.51;41.64
49825;BME280;35714;55.708;37.478;2023-03-19T03:59:40;100617.22;;;-1.51;41.84
49825;BME280;35714;55.708;37.478;2023-03-19T04:02:06;100615.81;;;-1.55;41.66
49825;BME280;35714;55.708;37.478;2023-03-19T04:04:32;100610.09;;;-1.51;42.09
49825;BME280;35714;55.708;37.478;2023-03-19T04:06:58;100619.25;;;-1.43;41.66
49825;BME280;35714;55.708;37.478;2023-03-19T04:09:39;100615.38;;;-1.39;41.83
49825;BME280;35714;55.708;37.478;2023-03-19T04:12:05;100625.75;;;-1.36;41.78
49825;BME280;35714;55.708;37.478;2023-03-19T04:14:31;100620.19;;;-1.33;41.68
49825;BME280;35714;55.708;37.478;2023-03-19T04:16:57;100611.22;;;-1.32;41.53
49825;BME280;35714;55.708;37.478;2023-03-19T04:19:22;100611.69;;;-1.27;41.57
49825;BME280;35714;55.708;37.478;2023-03-19T04:21:48;100619.16;;;-1.21;41.45
49825;BME280;35714;55.708;37.478;2023-03-19T04:24:14;100609.91;;;-1.17;41.30
49825;BME280;35714;55.708;37.478;2023-03-19T04:26:40;100604.34;;;-1.14;41.11
49825;BME280;35714;55.708;37.478;2023-03-19T04:29:07;100609.16;;;-1.07;41.10
49825;BME280;35714;55.708;37.478;2023-03-19T04:31:33;100604.13;;;-1.01;41.22
49825;BME280;35714;55.708;37.478;2023-03-19T04:33:59;100600.69;;;-0.92;41.28
49825;BME280;35714;55.708;37.478;2023-03-19T04:36:25;100593.84;;;-0.94;40.86
49825;BME280;35714;55.708;37.478;2023-03-19T04:38:50;100602.25;;;-0.89;41.05
49825;BME280;35714;55.708;37.478;2023-03-19T04:41:18;100589.09;;;-0.91;40.88
49825;BME280;35714;55.708;37.478;2023-03-19T04:43:58;100595.84;;;-0.86;40.75
49825;BME280;35714;55.708;37.478;2023-03-19T04:46:26;100603.59;;;-0.74;40.86
49825;BME280;35714;55.708;37.478;2023-03-19T04:48:58;100600.41;;;-0.67;40.58
49825;BME280;35714;55.708;37.478;2023-03-19T04:51:39;100595.53;;;-0.62;40.79
49825;BME280;35714;55.708;37.478;2023-03-19T04:54:07;100599.63;;;-0.58;40.76
49825;BME280;35714;55.708;37.478;2023-03-19T04:56:34;100593.81;;;-0.63;40.85
49825;BME280;35714;55.708;37.478;2023-03-19T04:59:00;100592.88;;;-0.62;40.73
49825;BME280;35714;55.708;37.478;2023-03-19T05:01:25;100600.03;;;-0.63;40.66
49825;BME280;35714;55.708;37.478;2023-03-19T05:04:04;100592.59;;;-0.59;40.79
49825;BME280;35714;55.708;37.478;2023-03-19T05:06:33;100598.34;;;-0.54;40.91
49825;BME280;35714;55.708;37.478;2023-03-19T05:08:59;100594.88;;;-0.55;40.74
49825;BME280;35714;55.708;37.478;2023-03-19T05:11:25;100596.13;;;-0.49;41.08
49825;BME280;35714;55.708;37.478;2023-03-19T05:14:03;100588.41;;;-0.52;40.97
49825;BME280;35714;55.708;37.478;2023-03-19T05:16:40;100582.63;;;-0.57;40.93
49825;BME280;35714;55.708;37.478;2023-03-19T05:19:06;100592.94;;;-0.43;40.74
49825;BME280;35714;55.708;37.478;2023-03-19T05:21:33;100591.25;;;-0.44;40.86
49825;BME280;35714;55.708;37.478;2023-03-19T05:23:59;100587.16;;;-0.48;40.88
49825;BME280;35714;55.708;37.478;2023-03-19T05:26:27;100589.28;;;-0.42;40.96
49825;BME280;35714;55.708;37.478;2023-03-19T05:29:11;100582.88;;;-0.29;40.93
49825;BME280;35714;55.708;37.478;2023-03-19T05:31:52;100576.59;;;-0.28;41.01
49825;BME280;35714;55.708;37.478;2023-03-19T05:34:19;100581.47;;;-0.33;40.69
49825;BME280;35714;55.708;37.478;2023-03-19T05:36:46;100581.19;;;-0.30;40.95
49825;BME280;35714;55.708;37.478;2023-03-19T05:39:16;100560.13;;;-0.33;40.90
49825;BME280;35714;55.708;37.478;2023-03-19T05:41:43;100562.69;;;-0.22;40.82
49825;BME280;35714;55.708;37.478;2023-03-19T05:44:13;100553.31;;;-0.16;40.57
49825;BME280;35714;55.708;37.478;2023-03-19T05:46:56;100560.50;;;0.03;40.49
49825;BME280;35714;55.708;37.478;2023-03-19T05:49:25;100561.38;;;0.13;40.33
49825;BME280;35714;55.708;37.478;2023-03-19T05:51:51;100560.81;;;0.29;40.11
49825;BME280;35714;55.708;37.478;2023-03-19T05:54:16;100560.25;;;0.35;40.07
49825;BME280;35714;55.708;37.478;2023-03-19T05:57:09;100549.28;;;0.38;40.15
49825;BME280;35714;55.708;37.478;2023-03-19T05:59:45;100541.28;;;0.48;39.98
49825;BME280;35714;55.708;37.478;2023-03-19T06:02:32;100528.75;;;0.58;39.58
49825;BME280;35714;55.708;37.478;2023-03-19T06:05:21;100542.44;;;0.93;39.27
49825;BME280;35714;55.708;37.478;2023-03-19T06:07:50;100541.81;;;1.18;38.89
49825;BME280;35714;55.708;37.478;2023-03-19T06:10:26;100546.44;;;1.54;38.60
49825;BME280;35714;55.708;37.478;2023-03-19T06:12:54;100533.84;;;1.92;38.18
49825;BME280;35714;55.708;37.478;2023-03-19T06:15:42;100530.84;;;2.31;37.54
49825;BME280;35714;55.708;37.478;2023-03-19T06:18:46;100532.59;;;2.84;36.32
49825;BME280;35714;55.708;37.478;2023-03-19T06:21:14;100525.50;;;3.28;35.98
49825;BME280;35714;55.708;37.478;2023-03-19T06:23:40;100530.69;;;3.64;34.94
49825;BME280;35714;55.708;37.478;2023-03-19T06:26:07;100529.09;;;4.04;33.70
49825;BME280;35714;55.708;37.478;2023-03-19T06:28:41;100525.78;;;4.34;33.25
49825;BME280;35714;55.708;37.478;2023-03-19T06:31:07;100520.25;;;4.61;33.70
49825;BME280;35714;55.708;37.478;2023-03-19T06:33:56;100514.75;;;5.18;33.20
49825;BME280;35714;55.708;37.478;2023-03-19T06:36:27;100518.38;;;5.73;32.46
49825;BME280;35714;55.708;37.478;2023-03-19T06:38:53;100512.03;;;6.29;31.33
49825;BME280;35714;55.708;37.478;2023-03-19T06:41:18;100502.56;;;6.71;30.82
49825;BME280;35714;55.708;37.478;2023-03-19T06:43:46;100512.00;;;7.05;30.45
49825;BME280;35714;55.708;37.478;2023-03-19T06:46:11;100510.97;;;7.51;29.12
49825;BME280;35714;55.708;37.478;2023-03-19T06:48:37;100510.47;;;7.77;28.57
49825;BME280;35714;55.708;37.478;2023-03-19T06:51:05;100511.78;;;8.03;28.48
49825;BME280;35714;55.708;37.478;2023-03-19T06:53:31;100497.50;;;8.30;27.57
49825;BME280;35714;55.708;37.478;2023-03-19T06:55:57;100495.91;;;8.58;27.51
49825;BME280;35714;55.708;37.478;2023-03-19T06:58:22;100500.13;;;8.95;27.05
49825;BME280;35714;55.708;37.478;2023-03-19T07:00:48;100499.81;;;9.47;26.68
49825;BME280;35714;55.708;37.478;2023-03-19T07:03:14;100496.88;;;10.03;25.66
49825;BME280;35714;55.708;37.478;2023-03-19T07:05:40;100494.47;;;10.49;25.49
49825;BME280;35714;55.708;37.478;2023-03-19T07:08:05;100495.50;;;10.94;25.03
49825;BME280;35714;55.708;37.478;2023-03-19T07:10:39;100488.28;;;11.40;23.83
49825;BME280;35714;55.708;37.478;2023-03-19T07:13:06;100491.50;;;11.69;23.46
49825;BME280;35714;55.708;37.478;2023-03-19T07:15:32;100480.16;;;11.85;22.90
49825;BME280;35714;55.708;37.478;2023-03-19T07:17:58;100482.63;;;11.94;22.38
49825;BME280;35714;55.708;37.478;2023-03-19T07:20:24;100485.53;;;11.99;21.89
49825;BME280;35714;55.708;37.478;2023-03-19T07:22:50;100478.25;;;11.93;21.91
49825;BME280;35714;55.708;37.478;2023-03-19T07:25:16;100481.34;;;12.03;22.29
49825;BME280;35714;55.708;37.478;2023-03-19T07:27:42;100472.94;;;12.36;21.69
49825;BME280;35714;55.708;37.478;2023-03-19T07:30:09;100477.34;;;12.62;21.47
49825;BME280;35714;55.708;37.478;2023-03-19T07:32:35;100478.16;;;12.88;21.25
49825;BME280;35714;55.708;37.478;2023-03-19T07:35:01;100474.34;;;13.33;21.15
49825;BME280;35714;55.708;37.478;2023-03-19T07:37:28;100478.59;;;13.96;20.44
49825;BME280;35714;55.708;37.478;2023-03-19T07:39:54;100481.81;;;14.59;19.59
49825;BME280;35714;55.708;37.478;2023-03-19T07:42:21;100485.91;;;15.15;19.41
49825;BME280;35714;55.708;37.478;2023-03-19T07:44:47;100479.72;;;15.61;18.55
49825;BME280;35714;55.708;37.478;2023-03-19T07:47:13;100477.13;;;15.54;18.08
49825;BME280;35714;55.708;37.478;2023-03-19T07:49:39;100475.22;;;15.55;18.05
49825;BME280;35714;55.708;37.478;2023-03-19T07:52:04;100478.97;;;15.37;18.01
49825;BME280;35714;55.708;37.478;2023-03-19T07:54:31;100468.03;;;15.48;18.29
49825;BME280;35714;55.708;37.478;2023-03-19T07:56:56;100469.50;;;15.97;17.85
49825;BME280;35714;55.708;37.478;2023-03-19T07:59:22;100470.09;;;16.28;17.21
49825;BME280;35714;55.708;37.478;2023-03-19T08:01:49;100465.38;;;16.40;17.14
49825;BME280;35714;55.708;37.478;2023-03-19T08:04:15;100462.03;;;16.72;17.32
49825;BME280;35714;55.708;37.478;2023-03-19T08:06:41;100469.00;;;17.36;17.25
49825;BME280;35714;55.708;37.478;2023-03-19T08:09:07;100459.84;;;17.74;16.10
49825;BME280;35714;55.708;37.478;2023-03-19T08:11:32;100451.53;;;17.64;15.55
49825;BME280;35714;55.708;37.478;2023-03-19T08:13:58;100449.38;;;17.44;15.97
49825;BME280;35714;55.708;37.478;2023-03-19T08:16:24;100447.44;;;17.66;16.25
49825;BME280;35714;55.708;37.478;2023-03-19T08:18:51;100442.53;;;18.23;16.03
49825;BME280;35714;55.708;37.478;2023-03-19T08:21:16;100443.59;;;18.87;15.86
49825;BME280;35714;55.708;37.478;2023-03-19T08:23:42;100443.22;;;19.16;15.14
49825;BME280;35714;55.708;37.478;2023-03-19T08:26:08;100444.38;;;19.30;15.18
49825;BME280;35714;55.708;37.478;2023-03-19T08:28:34;100434.31;;;19.61;14.78
49825;BME280;35714;55.708;37.478;2023-03-19T08:31:08;100439.97;;;20.08;14.26
49825;BME280;35714;55.708;37.478;2023-03-19T08:33:34;100426.50;;;20.22;13.21
49825;BME280;35714;55.708;37.478;2023-03-19T08:36:08;100423.84;;;19.53;13.76
49825;BME280;35714;55.708;37.478;2023-03-19T08:38:34;100421.22;;;19.21;13.98
49825;BME280;35714;55.708;37.478;2023-03-19T08:40:59;100410.91;;;18.90;14.43
49825;BME280;35714;55.708;37.478;2023-03-19T08:43:29;100416.88;;;19.25;14.95
49825;BME280;35714;55.708;37.478;2023-03-19T08:45:56;100408.81;;;19.81;14.14
49825;BME280;35714;55.708;37.478;2023-03-19T08:48:22;100405.53;;;20.31;14.35
49825;BME280;35714;55.708;37.478;2023-03-19T08:50:55;100401.69;;;20.42;13.48
49825;BME280;35714;55.708;37.478;2023-03-19T08:53:22;100397.03;;;20.37;13.71
49825;BME280;35714;55.708;37.478;2023-03-19T08:56:00;100379.63;;;20.73;13.20
49825;BME280;35714;55.708;37.478;2023-03-19T08:58:27;100381.69;;;21.12;13.59
49825;BME280;35714;55.708;37.478;2023-03-19T09:01:00;100374.50;;;21.21;13.00
49825;BME280;35714;55.708;37.478;2023-03-19T09:03:27;100367.81;;;21.33;12.33
49825;BME280;35714;55.708;37.478;2023-03-19T09:05:57;100365.53;;;20.85;12.55
49825;BME280;35714;55.708;37.478;2023-03-19T09:08:22;100359.22;;;20.64;12.90
49825;BME280;35714;55.708;37.478;2023-03-19T09:10:50;100352.63;;;20.70;13.26
49825;BME280;35714;55.708;37.478;2023-03-19T09:13:16;100354.75;;;20.99;12.49
49825;BME280;35714;55.708;37.478;2023-03-19T09:15:42;100353.19;;;20.46;12.69
49825;BME280;35714;55.708;37.478;2023-03-19T09:18:07;100346.06;;;19.94;13.68
49825;BME280;35714;55.708;37.478;2023-03-19T09:20:33;100351.56;;;20.04;13.98
49825;BME280;35714;55.708;37.478;2023-03-19T09:22:59;100348.50;;;20.67;13.49
49825;BME280;35714;55.708;37.478;2023-03-19T09:25:25;100350.28;;;21.13;13.05
49825;BME280;35714;55.708;37.478;2023-03-19T09:27:51;100347.91;;;21.46;12.87
49825;BME280;35714;55.708;37.478;2023-03-19T09:30:18;100355.16;;;21.26;12.74
49825;BME280;35714;55.708;37.478;2023-03-19T09:32:45;100346.81;;;20.71;13.05
49825;BME280;35714;55.708;37.478;2023-03-19T09:35:11;100347.19;;;20.18;13.45
49825;BME280;35714;55.708;37.478;2023-03-19T09:37:37;100350.47;;;19.79;13.95
49825;BME280;35714;55.708;37.478;2023-03-19T09:40:03;100340.22;;;19.54;14.32
49825;BME280;35714;55.708;37.478;2023-03-19T09:42:52;100352.69;;;19.82;14.15
49825;BME280;35714;55.708;37.478;2023-03-19T09:45:21;100319.84;;;20.53;13.97
49825;BME280;35714;55.708;37.478;2023-03-19T09:47:50;100329.22;;;21.27;13.29
49825;BME280;35714;55.708;37.478;2023-03-19T09:50:23;100333.09;;;21.26;13.17
49825;BME280;35714;55.708;37.478;2023-03-19T09:53:00;100331.84;;;21.58;13.00
49825;BME280;35714;55.708;37.478;2023-03-19T09:55:42;100333.38;;;21.75;12.55
49825;BME280;35714;55.708;37.478;2023-03-19T09:58:32;100338.56;;;21.37;13.22
49825;BME280;35714;55.708;37.478;2023-03-19T10:00:59;100335.97;;;21.01;13.25
49825;BME280;35714;55.708;37.478;2023-03-19T10:08:43;100320.94;;;22.12;12.71
49825;BME280;35714;55.708;37.478;2023-03-19T10:11:34;100310.09;;;21.86;12.29
49825;BME280;35714;55.708;37.478;2023-03-19T10:14:09;100310.81;;;21.62;12.49
49825;BME280;35714;55.708;37.478;2023-03-19T10:16:38;100308.81;;;21.29;12.75
49825;BME280;35714;55.708;37.478;2023-03-19T10:19:09;100309.97;;;21.22;13.40
49825;BME280;35714;55.708;37.478;2023-03-19T10:21:41;100316.63;;;21.16;13.27
49825;BME280;35714;55.708;37.478;2023-03-19T10:24:22;100306.97;;;21.14;13.24
49825;BME280;35714;55.708;37.478;2023-03-19T10:26:55;100304.88;;;21.40;13.19
49825;BME280;35714;55.708;37.478;2023-03-19T10:29:23;100298.41;;;21.94;13.10
49825;BME280;35714;55.708;37.478;2023-03-19T10:36:58;100305.41;;;21.42;12.93
49825;BME280;35714;55.708;37.478;2023-03-19T10:39:26;100297.88;;;21.08;13.13
49825;BME280;35714;55.708;37.478;2023-03-19T10:47:36;100286.34;;;21.01;13.51
49825;BME280;35714;55.708;37.478;2023-03-19T10:50:03;100272.91;;;21.34;13.42
49825;BME280;35714;55.708;37.478;2023-03-19T10:52:31;100270.50;;;21.67;13.19
49825;BME280;35714;55.708;37.478;2023-03-19T10:57:40;100277.53;;;21.43;13.07
49825;BME280;35714;55.708;37.478;2023-03-19T11:00:14;100284.00;;;21.29;13.65
49825;BME280;35714;55.708;37.478;2023-03-19T11:02:47;100277.28;;;21.40;13.12
49825;BME280;35714;55.708;37.478;2023-03-19T11:07:39;100276.03;;;22.25;12.61
49825;BME280;35714;55.708;37.478;2023-03-19T11:10:13;100272.56;;;21.85;13.28
49825;BME280;35714;55.708;37.478;2023-03-19T11:12:40;100270.03;;;21.54;13.27
49825;BME280;35714;55.708;37.478;2023-03-19T11:15:21;100261.09;;;21.68;13.16
49825;BME280;35714;55.708;37.478;2023-03-19T11:17:49;100263.63;;;22.23;12.99
49825;BME280;35714;55.708;37.478;2023-03-19T11:20:31;100253.94;;;21.67;13.31
49825;BME280;35714;55.708;37.478;2023-03-19T11:22:59;100259.66;;;21.36;13.67
49825;BME280;35714;55.708;37.478;2023-03-19T11:25:29;100263.09;;;21.17;13.70
49825;BME280;35714;55.708;37.478;2023-03-19T11:44:17;100244.28;;;20.75;14.48
49825;BME280;35714;55.708;37.478;2023-03-19T11:52:10;100248.16;;;20.63;14.29
49825;BME280;35714;55.708;37.478;2023-03-19T12:00:35;100231.28;;;21.70;13.36
49825;BME280;35714;55.708;37.478;2023-03-19T12:08:14;100219.38;;;21.35;13.50
49825;BME280;35714;55.708;37.478;2023-03-19T12:23:58;100188.44;;;21.43;13.69
49825;BME280;35714;55.708;37.478;2023-03-19T12:26:45;100191.16;;;21.48;13.59
49825;BME280;35714;55.708;37.478;2023-03-19T12:34:41;100172.25;;;20.91;13.93
49825;BME280;35714;55.708;37.478;2023-03-19T12:37:18;100169.31;;;21.17;13.65
49825;BME280;35714;55.708;37.478;2023-03-19T12:42:49;100158.19;;;20.93;13.65
49825;BME280;35714;55.708;37.478;2023-03-19T12:45:24;100155.41;;;20.98;13.44
49825;BME280;35714;55.708;37.478;2023-03-19T12:47:59;100147.34;;;21.07;13.39
49825;BME280;35714;55.708;37.478;2023-03-19T12:50:28;100142.75;;;20.92;13.79
49825;BME280;35714;55.708;37.478;2023-03-19T12:52:59;100140.28;;;20.96;13.20
49825;BME280;35714;55.708;37.478;2023-03-19T12:55:34;100143.03;;;20.96;13.18
49825;BME280;35714;55.708;37.478;2023-03-19T12:58:15;100144.06;;;21.05;13.22
49825;BME280;35714;55.708;37.478;2023-03-19T13:00:49;100137.94;;;21.13;13.09
49825;BME280;35714;55.708;37.478;2023-03-19T13:03:28;100141.41;;;20.89;13.59
49825;BME280;35714;55.708;37.478;2023-03-19T13:08:48;100127.81;;;22.15;12.58
49825;BME280;35714;55.708;37.478;2023-03-19T13:11:26;100131.88;;;21.75;12.70
49825;BME280;35714;55.708;37.478;2023-03-19T13:14:00;100123.84;;;21.44;13.05
49825;BME280;35714;55.708;37.478;2023-03-19T13:16:42;100111.63;;;20.91;13.67
49825;BME280;35714;55.708;37.478;2023-03-19T13:21:37;100125.69;;;21.24;13.17
49825;BME280;35714;55.708;37.478;2023-03-19T13:24:32;100113.41;;;21.41;13.32
49825;BME280;35714;55.708;37.478;2023-03-19T13:26:59;100115.19;;;21.26;12.87
49825;BME280;35714;55.708;37.478;2023-03-19T13:29:30;100115.19;;;21.26;13.12
49825;BME280;35714;55.708;37.478;2023-03-19T13:32:07;100110.59;;;21.46;12.98
49825;BME280;35714;55.708;37.478;2023-03-19T13:34:36;100107.66;;;21.67;13.05
49825;BME280;35714;55.708;37.478;2023-03-19T13:37:17;100105.44;;;21.69;12.81
49825;BME280;35714;55.708;37.478;2023-03-19T13:39:45;100106.44;;;20.85;13.55
49825;BME280;35714;55.708;37.478;2023-03-19T13:44:52;100093.00;;;20.73;13.84
49825;BME280;35714;55.708;37.478;2023-03-19T13:58:20;100085.09;;;21.30;12.95
49825;BME280;35714;55.708;37.478;2023-03-19T14:01:09;100082.84;;;20.13;13.73
49825;BME280;35714;55.708;37.478;2023-03-19T14:03:39;100074.72;;;19.82;14.04
49825;BME280;35714;55.708;37.478;2023-03-19T14:09:03;100078.41;;;18.85;14.54
49825;BME280;35714;55.708;37.478;2023-03-19T14:11:34;100068.47;;;18.69;14.24
49825;BME280;35714;55.708;37.478;2023-03-19T14:14:03;100067.03;;;18.35;14.86
49825;BME280;35714;55.708;37.478;2023-03-19T14:16:33;100068.97;;;18.45;14.61
49825;BME280;35714;55.708;37.478;2023-03-19T14:19:01;100063.13;;;18.11;14.86
49825;BME280;35714;55.708;37.478;2023-03-19T14:26:46;100049.81;;;17.82;15.65
49825;BME280;35714;55.708;37.478;2023-03-19T14:29:13;100050.75;;;17.45;16.03
49825;BME280;35714;55.708;37.478;2023-03-19T14:34:26;100050.19;;;17.48;15.93
49825;BME280;35714;55.708;37.478;2023-03-19T14:37:17;100047.94;;;17.40;15.95
49825;BME280;35714;55.708;37.478;2023-03-19T14:39:49;100041.44;;;16.76;16.62
49825;BME280;35714;55.708;37.478;2023-03-19T14:53:00;100042.97;;;15.85;17.77